sensor_id;sensor_type;location;lat;lon;timestamp;noise_LAeq;noise_LA_min;noise_LA_max;noise_LA01;noise_LA95
59284;Laerm;45056;47.602;9.886;2023-04-25T00:01:51;43.76;34.31;58.78;;
59284;Laerm;45056;47.602;9.886;2023-04-25T00:04:21;38.47;32.93;41.96;;
59284;Laerm;45056;47.602;9.886;2023-04-25T00:06:49;38.54;33.44;43.94;;
59284;Laerm;45056;47.602;9.886;2023-04-25T00:09:18;38.36;34.31;40.71;;
59284;Laerm;45056;47.602;9.886;2023-04-25T00:11:46;38.32;34.31;40.89;;
59284;Laerm;45056;47.602;9.886;2023-04-25T00:14:14;38.24;34.31;41.14;;
59284;Laerm;45056;47.602;9.886;2023-04-25T00:16:43;39.50;34.31;56.27;;
59284;Laerm;45056;47.602;9.886;2023-04-25T00:19:11;38.16;32.00;40.98;;
59284;Laerm;45056;47.602;9.886;2023-04-25T00:21:41;38.22;34.31;40.80;;
59284;Laerm;45056;47.602;9.886;2023-04-25T00:24:09;38.96;34.31;43.09;;
59284;Laerm;45056;47.602;9.886;2023-04-25T00:26:37;38.83;34.69;42.47;;
59284;Laerm;45056;47.602;9.886;2023-04-25T00:29:05;38.33;34.31;41.46;;
59284;Laerm;45056;47.602;9.886;2023-04-25T00:31:33;42.60;34.31;55.92;;
59284;Laerm;45056;47.602;9.886;2023-04-25T00:34:01;39.22;33.44;42.53;;
59284;Laerm;45056;47.602;9.886;2023-04-25T00:36:30;39.75;36.20;42.35;;
59284;Laerm;45056;47.602;9.886;2023-04-25T00:38:59;40.10;34.31;50.19;;
59284;Laerm;45056;47.602;9.886;2023-04-25T00:41:27;38.15;34.69;40.80;;
59284;Laerm;45056;47.602;9.886;2023-04-25T00:43:59;38.88;34.31;42.09;;
59284;Laerm;45056;47.602;9.886;2023-04-25T00:46:27;41.25;35.04;57.50;;
59284;Laerm;45056;47.602;9.886;2023-04-25T00:48:55;38.60;35.04;42.09;;
59284;Laerm;45056;47.602;9.886;2023-04-25T00:51:25;38.59;34.69;40.89;;
59284;Laerm;45056;47.602;9.886;2023-04-25T00:53:54;38.60;34.69;44.23;;
59284;Laerm;45056;47.602;9.886;2023-04-25T00:56:24;38.99;34.69;42.35;;
59284;Laerm;45056;47.602;9.886;2023-04-25T00:58:53;39.31;34.69;51.51;;
59284;Laerm;45056;47.602;9.886;2023-04-25T01:01:23;44.91;35.04;58.70;;
59284;Laerm;45056;47.602;9.886;2023-04-25T01:03:54;38.35;34.69;41.30;;
59284;Laerm;45056;47.602;9.886;2023-04-25T01:06:23;38.51;34.69;48.64;;
59284;Laerm;45056;47.602;9.886;2023-04-25T01:08:51;42.64;35.66;59.77;;
59284;Laerm;45056;47.602;9.886;2023-04-25T01:11:20;39.09;35.04;43.34;;
59284;Laerm;45056;47.602;9.886;2023-04-25T01:13:49;38.87;34.69;43.04;;
59284;Laerm;45056;47.602;9.886;2023-04-25T01:16:17;39.49;34.69;56.54;;
59284;Laerm;45056;47.602;9.886;2023-04-25T01:18:47;38.63;33.90;42.03;;
59284;Laerm;45056;47.602;9.886;2023-04-25T01:21:18;38.86;34.69;41.22;;
59284;Laerm;45056;47.602;9.886;2023-04-25T01:23:47;38.62;34.69;41.89;;
59284;Laerm;45056;47.602;9.886;2023-04-25T01:26:17;38.78;34.31;43.99;;
59284;Laerm;45056;47.602;9.886;2023-04-25T01:28:48;40.27;35.36;45.77;;
59284;Laerm;45056;47.602;9.886;2023-04-25T01:31:18;41.32;35.94;54.72;;
59284;Laerm;45056;47.602;9.886;2023-04-25T01:33:46;39.22;34.69;42.98;;
59284;Laerm;45056;47.602;9.886;2023-04-25T01:36:15;38.56;35.36;46.69;;
59284;Laerm;45056;47.602;9.886;2023-04-25T01:38:45;43.91;35.04;59.18;;
59284;Laerm;45056;47.602;9.886;2023-04-25T01:41:14;38.92;35.31;41.82;;
59284;Laerm;45056;47.602;9.886;2023-04-25T01:43:49;39.06;35.66;43.14;;
59284;Laerm;45056;47.602;9.886;2023-04-25T01:46:17;41.14;34.69;58.03;;
59284;Laerm;45056;47.602;9.886;2023-04-25T01:48:45;38.52;35.04;41.75;;
59284;Laerm;45056;47.602;9.886;2023-04-25T01:51:13;40.01;35.66;47.12;;
59284;Laerm;45056;47.602;9.886;2023-04-25T01:53:44;39.95;35.66;49.06;;
59284;Laerm;45056;47.602;9.886;2023-04-25T01:56:12;41.39;35.04;56.94;;
59284;Laerm;45056;47.602;9.886;2023-04-25T01:58:40;38.81;35.36;41.89;;
59284;Laerm;45056;47.602;9.886;2023-04-25T02:01:08;44.96;34.69;58.91;;
59284;Laerm;45056;47.602;9.886;2023-04-25T02:03:37;50.24;34.69;67.32;;
59284;Laerm;45056;47.602;9.886;2023-04-25T02:06:05;41.20;34.31;56.55;;
59284;Laerm;45056;47.602;9.886;2023-04-25T02:08:33;38.44;34.31;41.53;;
59284;Laerm;45056;47.602;9.886;2023-04-25T02:11:02;41.46;34.31;57.81;;
59284;Laerm;45056;47.602;9.886;2023-04-25T02:13:30;38.33;34.69;44.69;;
59284;Laerm;45056;47.602;9.886;2023-04-25T02:16:02;41.38;35.04;54.61;;
59284;Laerm;45056;47.602;9.886;2023-04-25T02:18:30;41.79;35.94;48.28;;
59284;Laerm;45056;47.602;9.886;2023-04-25T02:21:00;40.22;35.04;46.82;;
59284;Laerm;45056;47.602;9.886;2023-04-25T02:23:29;39.73;35.66;42.36;;
59284;Laerm;45056;47.602;9.886;2023-04-25T02:25:58;38.81;33.90;42.09;;
59284;Laerm;45056;47.602;9.886;2023-04-25T02:28:28;40.70;34.34;50.97;;
59284;Laerm;45056;47.602;9.886;2023-04-25T02:30:57;42.67;36.45;57.89;;
59284;Laerm;45056;47.602;9.886;2023-04-25T02:33:25;38.75;35.04;44.23;;
59284;Laerm;45056;47.602;9.886;2023-04-25T02:35:53;39.66;36.20;47.57;;
59284;Laerm;45056;47.602;9.886;2023-04-25T02:38:21;41.61;37.12;55.47;;
59284;Laerm;45056;47.602;9.886;2023-04-25T02:40:49;40.48;35.04;47.76;;
59284;Laerm;45056;47.602;9.886;2023-04-25T02:43:17;47.44;36.91;63.45;;
59284;Laerm;45056;47.602;9.886;2023-04-25T02:45:46;48.31;36.91;63.78;;
59284;Laerm;45056;47.602;9.886;2023-04-25T02:48:14;47.63;37.12;64.72;;
59284;Laerm;45056;47.602;9.886;2023-04-25T02:50:43;42.51;36.69;55.00;;
59284;Laerm;45056;47.602;9.886;2023-04-25T02:53:11;47.03;36.20;65.92;;
59284;Laerm;45056;47.602;9.886;2023-04-25T02:55:39;40.43;35.66;49.43;;
59284;Laerm;45056;47.602;9.886;2023-04-25T02:58:07;43.43;36.45;57.24;;
59284;Laerm;45056;47.602;9.886;2023-04-25T03:00:35;46.78;38.52;58.70;;
59284;Laerm;45056;47.602;9.886;2023-04-25T03:03:04;41.67;36.45;58.04;;
59284;Laerm;45056;47.602;9.886;2023-04-25T03:05:33;40.41;36.91;48.69;;
59284;Laerm;45056;47.602;9.886;2023-04-25T03:08:01;44.66;36.45;56.24;;
59284;Laerm;45056;47.602;9.886;2023-04-25T03:10:29;47.69;38.05;65.37;;
59284;Laerm;45056;47.602;9.886;2023-04-25T03:12:57;43.46;38.21;54.60;;
59284;Laerm;45056;47.602;9.886;2023-04-25T03:15:25;43.20;38.81;54.09;;
59284;Laerm;45056;47.602;9.886;2023-04-25T03:17:53;47.37;37.32;65.82;;
59284;Laerm;45056;47.602;9.886;2023-04-25T03:20:23;44.09;38.05;55.96;;
59284;Laerm;45056;47.602;9.886;2023-04-25T03:22:51;45.99;37.12;62.24;;
59284;Laerm;45056;47.602;9.886;2023-04-25T03:25:19;48.09;39.21;63.96;;
59284;Laerm;45056;47.602;9.886;2023-04-25T03:27:47;47.27;39.46;61.48;;
59284;Laerm;45056;47.602;9.886;2023-04-25T03:30:15;43.64;37.52;54.27;;
59284;Laerm;45056;47.602;9.886;2023-04-25T03:32:43;43.47;37.70;57.24;;
59284;Laerm;45056;47.602;9.886;2023-04-25T03:35:12;45.37;38.81;58.45;;
59284;Laerm;45056;47.602;9.886;2023-04-25T03:37:41;45.47;38.74;56.44;;
59284;Laerm;45056;47.602;9.886;2023-04-25T03:40:12;47.11;39.34;63.11;;
59284;Laerm;45056;47.602;9.886;2023-04-25T03:42:40;44.83;38.37;59.98;;
59284;Laerm;45056;47.602;9.886;2023-04-25T03:45:08;46.33;39.21;59.51;;
59284;Laerm;45056;47.602;9.886;2023-04-25T03:47:36;47.12;39.92;56.72;;
59284;Laerm;45056;47.602;9.886;2023-04-25T03:50:06;46.55;39.34;57.07;;
59284;Laerm;45056;47.602;9.886;2023-04-25T03:52:34;48.50;40.23;60.98;;
59284;Laerm;45056;47.602;9.886;2023-04-25T03:55:05;46.99;39.81;57.31;;
59284;Laerm;45056;47.602;9.886;2023-04-25T03:57:33;47.11;38.21;60.11;;
59284;Laerm;45056;47.602;9.886;2023-04-25T04:00:01;45.70;38.37;56.23;;
59284;Laerm;45056;47.602;9.886;2023-04-25T04:02:31;48.13;38.52;63.10;;
59284;Laerm;45056;47.602;9.886;2023-04-25T04:04:59;56.11;37.88;69.28;;
59284;Laerm;45056;47.602;9.886;2023-04-25T04:07:28;44.09;37.70;54.32;;
59284;Laerm;45056;47.602;9.886;2023-04-25T04:09:56;44.51;38.95;57.36;;
59284;Laerm;45056;47.602;9.886;2023-04-25T04:12:25;48.99;38.87;68.07;;
59284;Laerm;45056;47.602;9.886;2023-04-25T04:14:53;48.92;39.46;59.68;;
59284;Laerm;45056;47.602;9.886;2023-04-25T04:17:21;48.56;39.21;59.41;;
59284;Laerm;45056;47.602;9.886;2023-04-25T04:19:49;53.33;38.81;68.26;;
59284;Laerm;45056;47.602;9.886;2023-04-25T04:22:17;53.21;39.08;65.87;;
59284;Laerm;45056;47.602;9.886;2023-04-25T04:24:45;48.53;39.58;60.28;;
59284;Laerm;45056;47.602;9.886;2023-04-25T04:27:14;50.61;39.81;65.69;;
59284;Laerm;45056;47.602;9.886;2023-04-25T04:29:43;46.16;38.95;58.43;;
59284;Laerm;45056;47.602;9.886;2023-04-25T04:32:12;48.11;40.33;59.41;;
59284;Laerm;45056;47.602;9.886;2023-04-25T04:34:40;48.14;39.34;66.79;;
59284;Laerm;45056;47.602;9.886;2023-04-25T04:37:09;55.07;39.46;70.53;;
59284;Laerm;45056;47.602;9.886;2023-04-25T04:39:39;52.75;39.89;71.87;;
59284;Laerm;45056;47.602;9.886;2023-04-25T04:42:07;48.58;39.57;67.30;;
59284;Laerm;45056;47.602;9.886;2023-04-25T04:44:35;52.61;39.34;73.91;;
59284;Laerm;45056;47.602;9.886;2023-04-25T04:47:07;55.32;39.92;72.14;;
59284;Laerm;45056;47.602;9.886;2023-04-25T04:49:35;54.75;41.30;67.97;;
59284;Laerm;45056;47.602;9.886;2023-04-25T04:52:03;52.55;39.92;64.70;;
59284;Laerm;45056;47.602;9.886;2023-04-25T04:54:31;53.65;40.89;66.50;;
59284;Laerm;45056;47.602;9.886;2023-04-25T04:57:02;52.33;38.87;64.96;;
59284;Laerm;45056;47.602;9.886;2023-04-25T04:59:30;54.08;40.33;66.56;;
59284;Laerm;45056;47.602;9.886;2023-04-25T05:01:58;53.98;40.62;67.20;;
59284;Laerm;45056;47.602;9.886;2023-04-25T05:04:27;53.69;40.36;66.19;;
59284;Laerm;45056;47.602;9.886;2023-04-25T05:06:55;53.14;40.08;66.86;;
59284;Laerm;45056;47.602;9.886;2023-04-25T05:09:23;53.20;40.71;68.21;;
59284;Laerm;45056;47.602;9.886;2023-04-25T05:11:52;52.96;41.06;67.45;;
59284;Laerm;45056;47.602;9.886;2023-04-25T05:14:21;53.95;40.53;67.20;;
59284;Laerm;45056;47.602;9.886;2023-04-25T05:16:50;55.72;40.80;69.38;;
59284;Laerm;45056;47.602;9.886;2023-04-25T05:19:18;51.59;40.89;67.63;;
59284;Laerm;45056;47.602;9.886;2023-04-25T05:21:47;56.18;40.89;74.00;;
59284;Laerm;45056;47.602;9.886;2023-04-25T05:24:16;55.91;42.29;67.62;;
59284;Laerm;45056;47.602;9.886;2023-04-25T05:26:44;52.82;41.89;64.92;;
59284;Laerm;45056;47.602;9.886;2023-04-25T05:29:12;53.42;41.89;65.98;;
59284;Laerm;45056;47.602;9.886;2023-04-25T05:31:46;48.16;41.68;58.89;;
59284;Laerm;45056;47.602;9.886;2023-04-25T05:34:14;47.68;42.16;61.06;;
59284;Laerm;45056;47.602;9.886;2023-04-25T05:36:43;48.76;41.30;60.37;;
59284;Laerm;45056;47.602;9.886;2023-04-25T05:39:12;51.00;43.68;62.78;;
59284;Laerm;45056;47.602;9.886;2023-04-25T05:41:40;49.75;42.71;66.87;;
59284;Laerm;45056;47.602;9.886;2023-04-25T05:44:08;52.18;41.61;67.91;;
59284;Laerm;45056;47.602;9.886;2023-04-25T05:46:37;55.88;43.24;72.91;;
59284;Laerm;45056;47.602;9.886;2023-04-25T05:49:05;51.77;42.47;65.08;;
59284;Laerm;45056;47.602;9.886;2023-04-25T05:51:33;53.62;41.53;68.14;;
59284;Laerm;45056;47.602;9.886;2023-04-25T05:54:01;53.75;41.06;70.80;;
59284;Laerm;45056;47.602;9.886;2023-04-25T05:56:31;54.82;41.61;72.83;;
59284;Laerm;45056;47.602;9.886;2023-04-25T05:58:59;52.48;40.89;69.69;;
59284;Laerm;45056;47.602;9.886;2023-04-25T06:01:28;54.31;40.18;69.90;;
59284;Laerm;45056;47.602;9.886;2023-04-25T06:03:56;51.18;40.71;68.02;;
59284;Laerm;45056;47.602;9.886;2023-04-25T06:06:24;48.80;41.06;65.57;;
59284;Laerm;45056;47.602;9.886;2023-04-25T06:08:53;49.99;41.22;66.79;;
59284;Laerm;45056;47.602;9.886;2023-04-25T06:11:22;46.33;40.33;54.27;;
59284;Laerm;45056;47.602;9.886;2023-04-25T06:13:51;56.42;42.03;72.78;;
59284;Laerm;45056;47.602;9.886;2023-04-25T06:16:19;47.57;40.80;59.22;;
59284;Laerm;45056;47.602;9.886;2023-04-25T06:18:47;47.62;39.34;58.43;;
59284;Laerm;45056;47.602;9.886;2023-04-25T06:21:15;49.57;42.35;61.68;;
59284;Laerm;45056;47.602;9.886;2023-04-25T06:23:43;54.26;41.82;71.02;;
59284;Laerm;45056;47.602;9.886;2023-04-25T06:26:11;47.60;41.89;57.69;;
59284;Laerm;45056;47.602;9.886;2023-04-25T06:28:39;49.00;42.65;62.00;;
59284;Laerm;45056;47.602;9.886;2023-04-25T06:31:09;48.91;39.92;64.36;;
59284;Laerm;45056;47.602;9.886;2023-04-25T06:33:37;47.13;40.71;56.83;;
59284;Laerm;45056;47.602;9.886;2023-04-25T06:36:05;48.86;40.89;74.08;;
59284;Laerm;45056;47.602;9.886;2023-04-25T06:38:33;45.53;40.53;55.75;;
59284;Laerm;45056;47.602;9.886;2023-04-25T06:41:02;47.59;41.30;60.70;;
59284;Laerm;45056;47.602;9.886;2023-04-25T06:43:30;50.44;41.30;65.74;;
59284;Laerm;45056;47.602;9.886;2023-04-25T06:46:00;53.83;40.53;71.00;;
59284;Laerm;45056;47.602;9.886;2023-04-25T06:48:29;52.48;39.46;67.18;;
59284;Laerm;45056;47.602;9.886;2023-04-25T06:50:57;48.07;41.46;58.66;;
59284;Laerm;45056;47.602;9.886;2023-04-25T06:53:25;50.03;41.82;64.94;;
59284;Laerm;45056;47.602;9.886;2023-04-25T06:55:53;49.47;39.57;63.23;;
59284;Laerm;45056;47.602;9.886;2023-04-25T06:58:22;48.12;39.70;60.91;;
59284;Laerm;45056;47.602;9.886;2023-04-25T07:00:50;53.10;41.82;67.68;;
59284;Laerm;45056;47.602;9.886;2023-04-25T07:03:18;51.59;40.13;65.12;;
59284;Laerm;45056;47.602;9.886;2023-04-25T07:05:47;52.22;41.14;65.11;;
59284;Laerm;45056;47.602;9.886;2023-04-25T07:08:16;51.02;38.81;65.08;;
59284;Laerm;45056;47.602;9.886;2023-04-25T07:10:44;51.03;40.89;64.36;;
59284;Laerm;45056;47.602;9.886;2023-04-25T07:13:12;48.36;40.23;61.98;;
59284;Laerm;45056;47.602;9.886;2023-04-25T07:15:41;48.46;40.43;60.04;;
59284;Laerm;45056;47.602;9.886;2023-04-25T07:18:09;48.11;41.30;57.07;;
59284;Laerm;45056;47.602;9.886;2023-04-25T07:20:37;47.36;41.82;57.07;;
59284;Laerm;45056;47.602;9.886;2023-04-25T07:23:06;47.21;39.78;56.63;;
59284;Laerm;45056;47.602;9.886;2023-04-25T07:25:34;46.28;39.70;55.19;;
59284;Laerm;45056;47.602;9.886;2023-04-25T07:28:03;47.72;41.96;56.27;;
59284;Laerm;45056;47.602;9.886;2023-04-25T07:30:31;49.07;41.38;62.59;;
59284;Laerm;45056;47.602;9.886;2023-04-25T07:33:01;47.26;40.23;60.17;;
59284;Laerm;45056;47.602;9.886;2023-04-25T07:35:29;47.91;41.68;59.13;;
59284;Laerm;45056;47.602;9.886;2023-04-25T07:37:57;46.08;39.57;57.98;;
59284;Laerm;45056;47.602;9.886;2023-04-25T07:40:27;46.51;40.71;55.11;;
59284;Laerm;45056;47.602;9.886;2023-04-25T07:42:55;47.38;41.30;56.41;;
59284;Laerm;45056;47.602;9.886;2023-04-25T07:45:24;49.20;42.35;64.29;;
59284;Laerm;45056;47.602;9.886;2023-04-25T07:47:52;49.14;40.96;62.28;;
59284;Laerm;45056;47.602;9.886;2023-04-25T07:50:20;46.95;41.30;60.24;;
59284;Laerm;45056;47.602;9.886;2023-04-25T07:52:48;47.20;41.75;54.91;;
59284;Laerm;45056;47.602;9.886;2023-04-25T07:55:16;46.81;40.53;59.10;;
59284;Laerm;45056;47.602;9.886;2023-04-25T07:57:45;46.89;40.98;54.57;;
59284;Laerm;45056;47.602;9.886;2023-04-25T08:00:14;49.73;41.68;60.95;;
59284;Laerm;45056;47.602;9.886;2023-04-25T08:02:43;49.25;41.53;59.07;;
59284;Laerm;45056;47.602;9.886;2023-04-25T08:05:11;46.96;41.06;55.30;;
59284;Laerm;45056;47.602;9.886;2023-04-25T08:07:41;46.69;41.38;61.59;;
59284;Laerm;45056;47.602;9.886;2023-04-25T08:10:10;46.36;41.38;56.69;;
59284;Laerm;45056;47.602;9.886;2023-04-25T08:12:38;46.35;39.70;59.45;;
59284;Laerm;45056;47.602;9.886;2023-04-25T08:15:09;49.21;41.14;61.60;;
59284;Laerm;45056;47.602;9.886;2023-04-25T08:17:37;46.63;42.22;54.13;;
59284;Laerm;45056;47.602;9.886;2023-04-25T08:20:07;46.95;41.61;55.19;;
59284;Laerm;45056;47.602;9.886;2023-04-25T08:22:35;47.26;42.41;55.60;;
59284;Laerm;45056;47.602;9.886;2023-04-25T08:25:04;46.92;40.89;55.00;;
59284;Laerm;45056;47.602;9.886;2023-04-25T08:27:33;47.96;41.55;58.73;;
59284;Laerm;45056;47.602;9.886;2023-04-25T08:30:01;48.76;41.82;61.62;;
59284;Laerm;45056;47.602;9.886;2023-04-25T08:32:31;48.12;42.65;56.04;;
59284;Laerm;45056;47.602;9.886;2023-04-25T08:35:00;48.42;42.59;58.53;;
59284;Laerm;45056;47.602;9.886;2023-04-25T08:37:28;53.96;43.34;66.56;;
59284;Laerm;45056;47.602;9.886;2023-04-25T08:39:56;51.86;46.38;60.10;;
59284;Laerm;45056;47.602;9.886;2023-04-25T08:42:26;52.85;44.27;63.91;;
59284;Laerm;45056;47.602;9.886;2023-04-25T08:44:57;50.97;44.73;60.51;;
59284;Laerm;45056;47.602;9.886;2023-04-25T08:47:31;53.85;44.73;66.81;;
59284;Laerm;45056;47.602;9.886;2023-04-25T08:50:04;52.28;44.51;64.18;;
59284;Laerm;45056;47.602;9.886;2023-04-25T08:52:39;51.59;44.19;64.84;;
59284;Laerm;45056;47.602;9.886;2023-04-25T08:55:12;55.95;45.23;79.12;;
59284;Laerm;45056;47.602;9.886;2023-04-25T08:57:42;52.78;44.27;60.87;;
59284;Laerm;45056;47.602;9.886;2023-04-25T09:00:12;51.57;44.11;61.19;;
59284;Laerm;45056;47.602;9.886;2023-04-25T09:02:43;52.45;43.94;61.02;;
59284;Laerm;45056;47.602;9.886;2023-04-25T09:05:13;51.44;43.77;62.95;;
59284;Laerm;45056;47.602;9.886;2023-04-25T09:07:41;52.52;45.39;61.92;;
59284;Laerm;45056;47.602;9.886;2023-04-25T09:10:09;51.38;43.39;62.06;;
59284;Laerm;45056;47.602;9.886;2023-04-25T09:12:37;53.81;44.27;66.00;;
59284;Laerm;45056;47.602;9.886;2023-04-25T09:15:09;52.64;41.82;61.62;;
59284;Laerm;45056;47.602;9.886;2023-04-25T09:17:42;51.43;42.22;60.50;;
59284;Laerm;45056;47.602;9.886;2023-04-25T09:20:13;51.11;42.59;61.41;;
59284;Laerm;45056;47.602;9.886;2023-04-25T09:22:41;52.55;44.01;61.57;;
59284;Laerm;45056;47.602;9.886;2023-04-25T09:25:12;52.42;43.44;62.25;;
59284;Laerm;45056;47.602;9.886;2023-04-25T09:27:49;53.18;41.89;64.92;;
59284;Laerm;45056;47.602;9.886;2023-04-25T09:30:29;51.61;42.98;60.69;;
59284;Laerm;45056;47.602;9.886;2023-04-25T09:33:05;51.14;42.09;61.10;;
59284;Laerm;45056;47.602;9.886;2023-04-25T09:35:39;50.67;42.65;62.98;;
59284;Laerm;45056;47.602;9.886;2023-04-25T09:38:09;50.08;40.62;59.18;;
59284;Laerm;45056;47.602;9.886;2023-04-25T09:40:43;51.50;43.81;62.38;;
59284;Laerm;45056;47.602;9.886;2023-04-25T09:43:19;51.38;43.09;60.43;;
59284;Laerm;45056;47.602;9.886;2023-04-25T09:45:49;51.41;43.19;61.29;;
59284;Laerm;45056;47.602;9.886;2023-04-25T09:48:21;49.45;41.61;62.36;;
59284;Laerm;45056;47.602;9.886;2023-04-25T09:51:05;50.69;41.38;63.27;;
59284;Laerm;45056;47.602;9.886;2023-04-25T09:53:36;51.40;42.76;63.35;;
59284;Laerm;45056;47.602;9.886;2023-04-25T09:56:07;48.56;40.98;58.11;;
59284;Laerm;45056;47.602;9.886;2023-04-25T09:58:38;52.63;42.47;65.69;;
59284;Laerm;45056;47.602;9.886;2023-04-25T10:01:09;52.78;43.39;59.24;;
59284;Laerm;45056;47.602;9.886;2023-04-25T10:03:40;59.95;42.16;73.71;;
59284;Laerm;45056;47.602;9.886;2023-04-25T10:06:19;60.58;44.51;71.38;;
59284;Laerm;45056;47.602;9.886;2023-04-25T10:08:52;50.47;42.71;59.14;;
59284;Laerm;45056;47.602;9.886;2023-04-25T10:11:26;49.82;42.71;58.46;;
59284;Laerm;45056;47.602;9.886;2023-04-25T10:13:56;50.21;43.29;61.53;;
59284;Laerm;45056;47.602;9.886;2023-04-25T10:16:24;50.43;42.71;60.35;;
59284;Laerm;45056;47.602;9.886;2023-04-25T10:18:55;49.77;42.03;60.68;;
59284;Laerm;45056;47.602;9.886;2023-04-25T10:21:25;51.46;42.76;62.16;;
59284;Laerm;45056;47.602;9.886;2023-04-25T10:23:55;51.09;42.88;60.58;;
59284;Laerm;45056;47.602;9.886;2023-04-25T10:26:25;49.06;43.14;58.01;;
59284;Laerm;45056;47.602;9.886;2023-04-25T10:28:58;49.59;42.93;58.30;;
59284;Laerm;45056;47.602;9.886;2023-04-25T10:31:27;50.29;43.86;60.01;;
59284;Laerm;45056;47.602;9.886;2023-04-25T10:33:57;50.72;44.15;59.11;;
59284;Laerm;45056;47.602;9.886;2023-04-25T10:36:25;51.12;42.71;58.82;;
59284;Laerm;45056;47.602;9.886;2023-04-25T10:38:55;52.05;43.44;62.91;;
59284;Laerm;45056;47.602;9.886;2023-04-25T10:41:24;50.09;43.09;61.32;;
59284;Laerm;45056;47.602;9.886;2023-04-25T10:44:00;50.89;43.90;60.42;;
59284;Laerm;45056;47.602;9.886;2023-04-25T10:46:29;50.33;41.75;62.46;;
59284;Laerm;45056;47.602;9.886;2023-04-25T10:49:01;51.96;43.33;62.24;;
59284;Laerm;45056;47.602;9.886;2023-04-25T10:51:31;51.04;42.59;59.61;;
59284;Laerm;45056;47.602;9.886;2023-04-25T10:54:02;52.70;43.51;63.41;;
59284;Laerm;45056;47.602;9.886;2023-04-25T10:56:32;54.12;44.58;71.06;;
59284;Laerm;45056;47.602;9.886;2023-04-25T10:59:08;52.22;43.72;60.81;;
59284;Laerm;45056;47.602;9.886;2023-04-25T11:01:39;50.24;43.77;60.47;;
59284;Laerm;45056;47.602;9.886;2023-04-25T11:04:21;50.97;42.65;60.78;;
59284;Laerm;45056;47.602;9.886;2023-04-25T11:07:09;50.82;43.14;60.18;;
59284;Laerm;45056;47.602;9.886;2023-04-25T11:09:40;51.35;44.65;60.42;;
59284;Laerm;45056;47.602;9.886;2023-04-25T11:12:09;52.71;42.65;64.63;;
59284;Laerm;45056;47.602;9.886;2023-04-25T11:14:38;49.77;42.59;60.03;;
59284;Laerm;45056;47.602;9.886;2023-04-25T11:17:06;49.84;42.47;62.80;;
59284;Laerm;45056;47.602;9.886;2023-04-25T11:19:36;50.49;42.98;59.84;;
59284;Laerm;45056;47.602;9.886;2023-04-25T11:22:04;49.52;42.59;58.49;;
59284;Laerm;45056;47.602;9.886;2023-04-25T11:24:35;48.87;42.29;57.28;;
59284;Laerm;45056;47.602;9.886;2023-04-25T11:27:05;50.23;40.98;62.99;;
59284;Laerm;45056;47.602;9.886;2023-04-25T11:29:34;47.66;40.98;58.29;;
59284;Laerm;45056;47.602;9.886;2023-04-25T11:32:03;48.69;42.59;59.29;;
59284;Laerm;45056;47.602;9.886;2023-04-25T11:34:33;50.22;42.59;60.34;;
59284;Laerm;45056;47.602;9.886;2023-04-25T11:37:04;48.93;41.89;57.55;;
59284;Laerm;45056;47.602;9.886;2023-04-25T11:39:33;49.89;43.09;57.65;;
59284;Laerm;45056;47.602;9.886;2023-04-25T11:42:01;48.94;42.03;58.80;;
59284;Laerm;45056;47.602;9.886;2023-04-25T11:44:32;48.79;42.71;58.15;;
59284;Laerm;45056;47.602;9.886;2023-04-25T11:47:00;48.70;41.46;56.17;;
59284;Laerm;45056;47.602;9.886;2023-04-25T11:49:31;49.20;42.03;57.54;;
59284;Laerm;45056;47.602;9.886;2023-04-25T11:51:59;49.30;40.89;61.79;;
59284;Laerm;45056;47.602;9.886;2023-04-25T11:54:28;49.12;42.03;57.52;;
59284;Laerm;45056;47.602;9.886;2023-04-25T11:56:57;50.41;41.94;61.58;;
59284;Laerm;45056;47.602;9.886;2023-04-25T11:59:25;48.89;41.46;60.86;;
59284;Laerm;45056;47.602;9.886;2023-04-25T12:01:54;48.80;41.14;62.45;;
59284;Laerm;45056;47.602;9.886;2023-04-25T12:04:25;50.90;41.68;60.23;;
59284;Laerm;45056;47.602;9.886;2023-04-25T12:06:55;51.01;41.96;64.29;;
59284;Laerm;45056;47.602;9.886;2023-04-25T12:09:31;50.35;42.59;61.65;;
59284;Laerm;45056;47.602;9.886;2023-04-25T12:12:01;52.27;43.54;63.71;;
59284;Laerm;45056;47.602;9.886;2023-04-25T12:14:33;52.48;44.65;61.70;;
59284;Laerm;45056;47.602;9.886;2023-04-25T12:17:04;54.20;46.76;63.79;;
59284;Laerm;45056;47.602;9.886;2023-04-25T12:19:37;54.75;46.91;64.33;;
59284;Laerm;45056;47.602;9.886;2023-04-25T12:22:21;54.66;47.26;62.39;;
59284;Laerm;45056;47.602;9.886;2023-04-25T12:24:51;52.07;43.14;61.15;;
59284;Laerm;45056;47.602;9.886;2023-04-25T12:27:20;51.35;42.82;60.05;;
59284;Laerm;45056;47.602;9.886;2023-04-25T12:29:54;51.22;42.58;60.54;;
59284;Laerm;45056;47.602;9.886;2023-04-25T12:32:23;50.74;43.34;59.48;;
59284;Laerm;45056;47.602;9.886;2023-04-25T12:34:52;49.72;41.30;59.91;;
59284;Laerm;45056;47.602;9.886;2023-04-25T12:37:20;49.54;43.09;58.71;;
59284;Laerm;45056;47.602;9.886;2023-04-25T12:39:48;49.92;42.35;58.00;;
59284;Laerm;45056;47.602;9.886;2023-04-25T12:42:17;54.15;43.54;74.18;;
59284;Laerm;45056;47.602;9.886;2023-04-25T12:44:45;50.65;42.22;60.74;;
59284;Laerm;45056;47.602;9.886;2023-04-25T12:47:15;50.24;42.65;59.51;;
59284;Laerm;45056;47.602;9.886;2023-04-25T12:49:43;50.29;42.22;62.45;;
59284;Laerm;45056;47.602;9.886;2023-04-25T12:52:11;49.17;41.53;57.40;;
59284;Laerm;45056;47.602;9.886;2023-04-25T12:54:39;49.38;41.46;57.47;;
59284;Laerm;45056;47.602;9.886;2023-04-25T12:57:07;48.79;40.33;55.82;;
59284;Laerm;45056;47.602;9.886;2023-04-25T12:59:37;49.48;41.46;57.70;;
59284;Laerm;45056;47.602;9.886;2023-04-25T13:02:05;49.91;42.59;59.97;;
59284;Laerm;45056;47.602;9.886;2023-04-25T13:04:33;50.23;42.76;63.14;;
59284;Laerm;45056;47.602;9.886;2023-04-25T13:07:01;50.29;41.89;59.39;;
59284;Laerm;45056;47.602;9.886;2023-04-25T13:09:30;50.92;43.34;63.60;;
59284;Laerm;45056;47.602;9.886;2023-04-25T13:11:58;52.01;42.88;63.94;;
59284;Laerm;45056;47.602;9.886;2023-04-25T13:14:26;51.12;40.62;61.41;;
59284;Laerm;45056;47.602;9.886;2023-04-25T13:16:56;50.38;42.22;59.47;;
59284;Laerm;45056;47.602;9.886;2023-04-25T13:19:24;50.11;42.88;60.98;;
59284;Laerm;45056;47.602;9.886;2023-04-25T13:21:52;51.86;43.49;64.10;;
59284;Laerm;45056;47.602;9.886;2023-04-25T13:24:20;49.80;41.53;58.56;;
59284;Laerm;45056;47.602;9.886;2023-04-25T13:26:49;49.99;42.09;58.05;;
59284;Laerm;45056;47.602;9.886;2023-04-25T13:29:17;49.94;43.34;62.64;;
59284;Laerm;45056;47.602;9.886;2023-04-25T13:31:45;50.35;43.24;58.99;;
59284;Laerm;45056;47.602;9.886;2023-04-25T13:34:14;49.42;42.47;59.63;;
59284;Laerm;45056;47.602;9.886;2023-04-25T13:36:42;51.26;43.09;61.20;;
59284;Laerm;45056;47.602;9.886;2023-04-25T13:39:10;50.20;43.49;58.31;;
59284;Laerm;45056;47.602;9.886;2023-04-25T13:41:39;49.01;41.06;58.67;;
59284;Laerm;45056;47.602;9.886;2023-04-25T13:44:07;49.23;42.76;57.84;;
59284;Laerm;45056;47.602;9.886;2023-04-25T13:46:35;50.51;43.14;64.85;;
59284;Laerm;45056;47.602;9.886;2023-04-25T13:49:04;49.36;41.53;58.31;;
59284;Laerm;45056;47.602;9.886;2023-04-25T13:51:34;50.70;41.82;60.14;;
59284;Laerm;45056;47.602;9.886;2023-04-25T13:54:02;49.89;41.30;58.44;;
59284;Laerm;45056;47.602;9.886;2023-04-25T13:56:30;49.84;43.49;58.72;;